New Douglas, Illinois
Current Conditions -  °F | °C
As of 2:15 PM on Thursday 29 Jan 2015 (Local Time) from K3LF Reporting Station
Haze Haze  
Wind Chill: 26°   Ceiling: 1700
Heat Index: 36°   Visibility: 5mi
Dew Point: 32°   Wind: 17mph
Humidity: 86%   Direction: 300°WNW
Pressure: 30.15"   Gusts: 24mph
Location:  38.97°N, 89.67°W
Report Text: K3LF 292015Z AUTO 30015G21KT 5SM BR BKN017 OVC022 02/00 A3015 RMK AO2 T00220000
Loading
Personal Weather Stations






























Interactive Weather Map New forecast layout! Learn more

10-Day Weather Forecast

Advertisements
Track Severe Weather on mobile